• Join FlightAware (Why Join?)
  • Login
  • US Flag 
03:17PM EDT


 

Airport Tracker/Info


-or-


 

Live Flight TrackerFlight Track Log ✈ SWA1516 ✈ 09-May-2013 ✈ KPHX - KSDF

Flight Track Log - Related Links

Times and Time Zones

All times are in EDT time to prevent confusion due to time zone crossing. See the SWA1516 flight status page for this flight to view local times or setup timezone preferences in your user account.

Time Position Orientation Groundspeed Altitude Reporting Facility
EDT Latitude Longitude Course Direction KTS MPH feet Rate Location/Type
02:33PM 33.4333 -112.0500 248° West 173 199 2,500  Level Phoenix TRACON
02:34PM 33.4167 -112.1000 248° West 211 243 3,900 1,680 Climbing Phoenix TRACON
02:35PM 33.4031 -112.1467 251° West 226 260 5,400 2,340 Climbing Albuquerque Center
02:36PM 33.3572 -112.1467 180° South 257 296 8,000 2,580 Climbing Albuquerque Center
02:37PM 33.3386 -112.0389 102° East 278 320 10,700 2,520 Climbing Albuquerque Center
02:38PM 33.3311 -111.9253 94° East 344 396 13,200 2,700 Climbing Albuquerque Center
02:39PM 33.3600 -111.8117 73° East 361 415 16,300 2,700 Climbing Albuquerque Center
02:40PM 33.3919 -111.6914 72° East 376 433 18,800 2,340 Climbing Albuquerque Center
02:41PM 33.4258 -111.5636 72° East 396 456 21,200 2,400 Climbing Albuquerque Center
02:42PM 33.4669 -111.4033 73° East 417 480 23,800 2,160 Climbing Albuquerque Center
02:43PM 33.5031 -111.2636 73° East 435 501 25,700 1,800 Climbing Albuquerque Center
02:44PM 33.5325 -111.1172 76° East 451 519 27,600 1,680 Climbing Albuquerque Center
02:45PM 33.5489 -110.9647 83° East 462 532 29,200 1,380 Climbing Albuquerque Center
02:46PM 33.5806 -110.8117 76° East 470 541 30,500 1,380 Climbing Albuquerque Center
02:47PM 33.6275 -110.6611 69° East 479 551 32,100 1,560 Climbing Albuquerque Center
02:48PM 33.6803 -110.4789 71° East 484 557 33,700 1,260 Climbing Albuquerque Center
02:49PM 33.7197 -110.3453 70° East 487 560 34,800 1,320 Climbing Albuquerque Center
02:50PM 33.7725 -110.1606 71° East 489 563 36,500 1,020 Climbing Albuquerque Center
02:51PM 33.8169 -110.0100 70° East 486 559 37,000 240 Climbing Albuquerque Center
02:52PM 33.8603 -109.8594 71° East 481 554 37,000  Level Albuquerque Center
02:53PM 33.9044 -109.7089 70° East 480 552 37,000  Level Albuquerque Center
02:54PM 33.9478 -109.5569 71° East 481 554 37,000  Level Albuquerque Center
02:55PM 33.9911 -109.4047 71° East 482 555 37,000  Level Albuquerque Center
02:56PM 34.0431 -109.2211 71° East 484 557 37,000  Level Albuquerque Center
02:57PM 34.0856 -109.0681 71° East 484 557 37,000  Level Albuquerque Center
02:58PM 34.1286 -108.9167 71° East 482 555 37,000  Level Albuquerque Center
02:59PM 34.1700 -108.7686 71° East 476 548 37,000  Level Albuquerque Center
03:00PM 34.2119 -108.6172 71° East 477 549 37,000  Level Albuquerque Center
03:02PM 34.2542 -108.4647 71° East 480 552 37,000  Level Albuquerque Center
03:03PM 34.3036 -108.2831 72° East 479 551 37,000  Level Albuquerque Center
03:04PM 34.3439 -108.1381 71° East 476 548 37,000  Level Albuquerque Center
03:05PM 34.3853 -107.9864 72° East 476 548 37,000  Level Albuquerque Center
03:06PM 34.4253 -107.8344 72° East 476 548 37,000  Level Albuquerque Center
03:07PM 34.4664 -107.6842 72° East 473 544 37,000  Level Albuquerque Center
03:08PM 34.5153 -107.5014 72° East 475 547 37,000  Level Albuquerque Center
03:09PM 34.5536 -107.3514 73° East 471 542 37,000  Level Albuquerque Center
03:10PM 34.5942 -107.2006 72° East 472 543 37,000  Level Albuquerque Center
03:11PM 34.6333 -107.0514 72° East 470 541 37,000  Level Albuquerque Center
03:12PM 34.6717 -106.9003 73° East 471 542 37,000  Level Albuquerque Center
03:13PM 34.7094 -106.7481 73° East 475 547 37,000  Level Albuquerque Center
03:14PM 34.7575 -106.5661 72° East 477 549 37,000  Level Albuquerque Center
03:15PM 34.7961 -106.4114 73° East 480 552 37,000  Level Albuquerque Center
03:16PM 34.8356 -106.2567 73° East 481 554 37,000  Level Albuquerque Center
03:17PM 34.8750 -106.1028 73° East 480 552 37,000  Level Albuquerque Center
03:18PM 34.9125 -105.9469 74° East 480 552 37,000  Level Albuquerque Center
03:19PM 34.9569 -105.7689 73° East 479 551 37,000  Level Albuquerque Center
03:20PM 34.9961 -105.6131 73° East 478 550 37,000  Level Albuquerque Center
03:21PM 35.0353 -105.4564 73° East 479 551 37,000  Level Albuquerque Center
03:22PM 35.0747 -105.3008 73° East 476 548 37,000  Level Albuquerque Center
03:23PM 35.1119 -105.1439 74° East 476 548 37,000  Level Albuquerque Center
03:24PM 35.1569 -104.9619 73° East 475 547 37,000  Level Albuquerque Center
03:25PM 35.1933 -104.8058 74° East 472 543 37,000  Level Albuquerque Center
03:26PM 35.2308 -104.6486 74° East 476 548 37,000  Level Albuquerque Center
03:27PM 35.2683 -104.4997 73° East 478 550 37,000  Level Albuquerque Center
03:28PM 35.3042 -104.3444 74° East 477 549 37,000  Level Albuquerque Center
03:29PM 35.3444 -104.1722 74° East 473 544 37,000  Level Albuquerque Center
03:30PM 35.3811 -104.0119 74° East 476 548 37,000  Level Albuquerque Center
03:31PM 35.4178 -103.8536 74° East 476 548 37,000  Level Albuquerque Center
03:32PM 35.4542 -103.6958 74° East 476 548 37,000  Level Albuquerque Center
03:33PM 35.4900 -103.5372 74° East 477 549 37,000  Level Albuquerque Center
03:34PM 35.5247 -103.3797 75° East 476 548 37,000  Level Albuquerque Center
03:36PM 35.5606 -103.2236 74° East 472 543 37,000  Level Albuquerque Center
03:37PM 35.6011 -103.0419 75° East 470 541 37,000  Level Albuquerque Center
03:38PM 35.6353 -102.8844 75° East 467 537 37,000  Level Albuquerque Center
03:39PM 35.6689 -102.7308 75° East 465 535 37,000  Level Albuquerque Center
03:40PM 35.7044 -102.5769 74° East 466 536 37,000  Level Albuquerque Center
03:41PM 35.7375 -102.4211 75° East 469 540 37,000  Level Albuquerque Center
03:42PM 35.7711 -102.2658 75° East 469 540 37,000  Level Albuquerque Center
03:43PM 35.8039 -102.1086 76° East 472 543 37,000  Level Albuquerque Center
03:44PM 35.8369 -101.9517 75° East 471 542 37,000  Level Albuquerque Center
03:45PM 35.8706 -101.7936 75° East 474 545 37,000  Level Albuquerque Center
03:46PM 35.9100 -101.6039 76° East 475 547 37,000  Level Albuquerque Center
03:47PM 35.9436 -101.4467 75° East 474 545 37,000  Level Albuquerque Center
03:48PM 35.9764 -101.2872 76° East 476 548 37,000 480 Level Albuquerque Center
03:49PM 36.0089 -101.1258 76° East 481 554 38,100 900 Climbing Albuquerque Center
03:50PM 36.0411 -100.9694 76° East 483 556 38,900 420 Climbing Albuquerque Center
03:51PM 36.0731 -100.8078 76° East 484 557 39,000  Climbing Albuquerque Center
03:52PM 36.1119 -100.6144 76° East 482 555 39,000  Level Albuquerque Center
03:53PM 36.1433 -100.4531 76° East 481 554 39,000  Level Albuquerque Center
03:54PM 36.1764 -100.2928 76° East 480 552 39,000  Level Albuquerque Center
03:55PM 36.2017 -100.1653 76° East 478 550 39,000  Level Kansas City Center
03:56PM 36.2331 -100.0047 76° East 477 549 39,000  Level Kansas City Center
03:57PM 36.2636 -99.8450 77° East 475 547 39,000  Level Kansas City Center
03:58PM 36.2947 -99.6856 76° East 475 547 39,000  Level Kansas City Center
03:59PM 36.3244 -99.5267 77° East 469 540 39,000  Level Kansas City Center
04:00PM 36.3606 -99.3328 77° East 473 544 39,000  Level Kansas City Center
04:01PM 36.3914 -99.1697 77° East 477 549 39,000  Level Kansas City Center
04:02PM 36.4217 -99.0069 77° East 479 551 39,000  Level Kansas City Center
04:03PM 36.4514 -98.8442 77° East 479 551 39,000  Level Kansas City Center
04:04PM 36.4817 -98.6817 77° East 479 551 39,000  Level Kansas City Center
04:05PM 36.5100 -98.5183 78° East 480 552 39,000  Level Kansas City Center
04:06PM 36.5400 -98.3556 77° East 481 554 39,000  Level Kansas City Center
04:07PM 36.5686 -98.1906 78° East 484 557 39,000  Level Kansas City Center
04:08PM 36.6042 -97.9931 77° East 486 559 39,000  Level Kansas City Center
04:09PM 36.6322 -97.8269 78° East 488 562 39,000  Level Kansas City Center
04:10PM 36.6603 -97.6592 78° East 488 562 39,000  Level Kansas City Center
04:11PM 36.6894 -97.4919 78° East 491 565 39,000  Level Kansas City Center
04:13PM 36.7181 -97.3228 78° East 493 567 39,000  Level Kansas City Center
04:14PM 36.7467 -97.1547 78° East 494 568 39,000  Level Kansas City Center
04:15PM 36.7775 -96.9717 78° East 493 567 39,000  Level Kansas City Center
04:16PM 36.8047 -96.8019 79° East 497 572 39,000  Level Kansas City Center
04:17PM 36.8333 -96.6317 78° East 499 574 39,000  Level Kansas City Center
04:18PM 36.8608 -96.4614 79° East 498 573 39,000  Level Kansas City Center
04:19PM 36.8872 -96.2883 79° East 503 579 39,000  Level Kansas City Center
04:20PM 36.9211 -96.0781 79° East 509 586 39,000  Level Kansas City Center
04:21PM 36.9494 -95.9025 79° East 510 587 39,000  Level Kansas City Center
04:22PM 36.9767 -95.7269 79° East 510 587 39,000  Level Kansas City Center
04:23PM 37.0039 -95.5503 79° East 511 588 39,000  Level Kansas City Center
04:24PM 37.0306 -95.3764 79° East 507 583 39,000  Level Kansas City Center
04:25PM 37.0578 -95.2006 79° East 510 587 39,000  Level Kansas City Center
04:26PM 37.0842 -95.0253 79° East 510 587 39,000  Level Kansas City Center
04:27PM 37.1111 -94.8456 79° East 517 595 39,000  Level Kansas City Center
04:28PM 37.1397 -94.6283 81° East 523 602 39,000 -420 Level Kansas City Center
04:29PM 37.1661 -94.4489 79° East 523 602 38,200 -840 Descending Kansas City Center
04:30PM 37.1925 -94.2667 80° East 527 606 37,300 -600 Descending Kansas City Center
04:31PM 37.2194 -94.0694 80° East 532 612 37,000 -180 Descending Kansas City Center
04:32PM 37.2464 -93.8883 79° East 529 609 37,000  Level Kansas City Center
04:33PM 37.2714 -93.7053 80° East 531 611 37,000  Level Kansas City Center
04:34PM 37.2975 -93.5200 80° East 536 617 37,000  Level Kansas City Center
04:35PM 37.3219 -93.3317 81° East 543 625 37,000  Level Kansas City Center
04:36PM 37.3469 -93.1467 80° East 542 624 37,000  Level Kansas City Center
04:37PM 37.3764 -92.9217 81° East 544 626 37,000  Level Kansas City Center
04:38PM 37.4008 -92.7353 81° East 543 625 37,000  Level Kansas City Center
04:39PM 37.4247 -92.5489 81° East 543 625 37,000  Level Kansas City Center
04:40PM 37.4481 -92.3639 81° East 541 623 37,000  Level Kansas City Center
04:41PM 37.4714 -92.1794 81° East 540 621 37,000  Level Kansas City Center
04:42PM 37.4981 -91.9633 81° East 533 613 37,000  Level Kansas City Center
04:44PM 37.5200 -91.7875 81° East 523 602 37,000  Level Kansas City Center
04:45PM 37.5397 -91.6136 82° East 514 592 37,000  Level Kansas City Center
04:46PM 37.5592 -91.4394 82° East 508 585 37,000  Level Kansas City Center
04:47PM 37.5800 -91.2647 81° East 506 582 37,000  Level Kansas City Center
04:48PM 37.5997 -91.0900 82° East 505 581 37,000  Level Kansas City Center
04:49PM 37.6222 -90.8861 82° East 504 580 37,000  Level Kansas City Center
04:50PM 37.6408 -90.7200 82° East 490 564 37,000  Level Kansas City Center
04:51PM 37.6594 -90.5528 82° East 486 559 37,000  Level Kansas City Center
04:52PM 37.6764 -90.3881 83° East 481 554 37,000  Level Kansas City Center
04:53PM 37.6936 -90.2264 82° East 473 544 37,000  Level Kansas City Center
04:54PM 37.7142 -90.0322 82° East 469 540 37,000  Level Kansas City Center
04:55PM 37.7308 -89.8719 82° East 466 536 37,000  Level Kansas City Center
04:56PM 37.7472 -89.7094 83° East 466 536 37,000  Level Kansas City Center
04:57PM 37.7639 -89.5464 83° East 469 540 37,000 -540 Level Kansas City Center
04:58PM 37.7886 -89.3617 80° East 466 536 35,900 -1,020 Descending Kansas City Center
04:59PM 37.8219 -89.1986 75° East 474 545 34,900 -1,020 Descending Kansas City Center
05:00PM 37.8583 -89.0308 75° East 470 541 33,900 -900 Descending Kansas City Center
05:01PM 37.8911 -88.8711 75° East 468 539 33,100 -1,380 Descending Kansas City Center
05:02PM 37.9272 -88.7111 74° East 470 541 31,100 -1,800 Descending Kansas City Center
05:03PM 37.9628 -88.5592 73° East 475 547 29,400 -1,020 Descending Kansas City Center
05:04PM 38.0050 -88.3586 75° East 485 558 29,000 -240 Descending Kansas City Center
05:05PM 38.0406 -88.1908 75° East 491 565 29,000 -300 Level Kansas City Center
05:06PM 38.0739 -88.0211 76° East 493 567 28,500 -720 Descending Kansas City Center
05:07PM 38.0900 -87.8486 83° East 489 563 27,600 -960 Descending Kansas City Center
05:08PM 38.1094 -87.6733 82° East 496 571 26,600 -960 Descending Kansas City Center
05:10PM 38.1336 -87.4658 82° East 498 573 25,400 -1,080 Descending Indianapolis Center
05:11PM 38.1556 -87.2597 82° East 495 570 24,200 -1,080 Descending Indianapolis Center
05:12PM 38.1722 -87.0931 83° East 487 560 23,200 -1,620 Descending Indianapolis Center
05:13PM 38.1883 -86.9317 83° East 474 545 20,900 -3,000 Descending Indianapolis Center
05:14PM 38.2039 -86.7753 83° East 456 525 17,000 -4,260 Descending Indianapolis Center
05:15PM 38.2225 -86.5917 83° East 439 505 12,200 -2,880 Descending Indianapolis Center
05:16PM 38.2228 -86.4553 90° East 386 444 11,100 -1,020 Descending Indianapolis Center
05:17PM 38.2264 -86.3358 88° East 339 390 10,100 -1,260 Descending Indianapolis Center
05:18PM 38.2469 -86.2261 77° East 321 369 8,500 -1,680 Descending Indianapolis Center
05:19PM 38.2694 -86.1225 75° East 310 357 6,700 -1,680 Descending Indianapolis Center
05:20PM 38.2892 -86.0250 76° East 293 337 5,100 -1,740 Descending Indianapolis Center
05:21PM 38.3094 -85.9367 74° East 269 310 3,100 -1,260 Descending Indianapolis Center
05:22PM 38.3000 -85.8564 99° East 195 224 2,600 -300 Descending Indianapolis Center
05:23PM 38.2906 -85.7989 102° East 176 203 2,600 -300 Level Indianapolis Center
05:24PM 38.2636 -85.7572 129° Southeast 180 207 2,000 -540 Descending Indianapolis Center
05:25PM 38.2139 -85.7442 168° South 174 200 1,600 -420 Descending Indianapolis Center
05:27PM 38.1741 -85.7365 122° Southeast  Level Estimated
05:34PM 38.1741 -85.7365 122° Southeast  Level Estimated